Time;durP1;ratioP1;P1;durP2;ratioP2;P2;SDS_P1;SDS_P2;PMS_P1;PMS_P2;Temp;Humidity;BMP_temperature;BMP_pressure;BME280_temperature;BME280_humidity;BME280_pressure;Samples;Min_cycle;Max_cycle;Signal;HPM_P1;HPM_P2
2022/10/05 00:01:29;;;;;;;11.75;8.43;;;15.10;99.90;;;;;;5075563;28;20044;-24
2022/10/05 00:04:10;;;;;;;14.00;8.40;;;15.10;99.90;;;;;;5075478;28;20044;-24
2022/10/05 00:06:35;;;;;;;16.35;6.60;;;15.00;99.90;;;;;;5074440;28;20708;-25
2022/10/05 00:09:31;;;;;;;11.48;7.85;;;15.00;99.90;;;;;;5074954;28;20053;-25
2022/10/05 00:11:57;;;;;;;10.90;6.35;;;15.00;99.90;;;;;;5058835;28;20560;-25
2022/10/05 00:14:30;;;;;;;10.13;6.70;;;15.00;99.90;;;;;;5070233;28;20049;-25
2022/10/05 00:16:57;;;;;;;12.05;6.95;;;15.00;99.90;;;;;;5073184;28;20120;-25
2022/10/05 00:19:27;;;;;;;11.88;6.93;;;15.00;99.90;;;;;;5073043;28;20079;-24
2022/10/05 00:22:05;;;;;;;10.98;6.97;;;15.00;99.90;;;;;;5073912;28;20045;-25
2022/10/05 00:24:30;;;;;;;11.30;6.50;;;15.10;99.90;;;;;;5075050;28;20091;-25
2022/10/05 00:27:19;;;;;;;6.38;5.22;;;15.10;99.90;;;;;;5050957;28;20076;-25
2022/10/05 00:29:46;;;;;;;10.07;6.78;;;15.10;99.90;;;;;;5054917;28;20371;-25
2022/10/05 00:32:12;;;;;;;10.23;6.60;;;15.10;99.90;;;;;;5054564;28;20079;-25
2022/10/05 00:34:38;;;;;;;8.48;6.38;;;15.10;99.90;;;;;;5053647;28;20079;-25
2022/10/05 00:37:05;;;;;;;9.05;5.63;;;15.10;99.90;;;;;;5067415;28;20167;-25
2022/10/05 00:39:32;;;;;;;9.20;6.38;;;15.10;99.90;;;;;;5073347;28;20131;-25
2022/10/05 00:42:25;;;;;;;7.75;6.13;;;15.10;99.90;;;;;;5074716;28;20055;-25
2022/10/05 00:44:53;;;;;;;7.20;5.45;;;15.10;99.90;;;;;;5074682;28;20049;-25
2022/10/05 00:47:41;;;;;;;8.18;5.85;;;15.10;99.90;;;;;;5070161;28;20379;-25
2022/10/05 00:50:22;;;;;;;7.00;5.57;;;15.10;99.90;;;;;;5074461;28;20048;-24
2022/10/05 00:53:04;;;;;;;7.90;5.10;;;15.00;99.90;;;;;;5074582;28;20049;-24
2022/10/05 00:55:49;;;;;;;10.55;6.10;;;15.00;99.90;;;;;;5073784;28;20048;-25
2022/10/05 00:58:32;;;;;;;7.57;5.82;;;15.00;99.90;;;;;;5054853;28;20052;-25
2022/10/05 01:01:13;;;;;;;6.30;5.22;;;15.00;99.90;;;;;;5054679;28;20364;-25
2022/10/05 01:04:09;;;;;;;9.95;5.70;;;15.00;99.90;;;;;;5070034;28;20076;-25
2022/10/05 01:07:02;;;;;;;7.57;4.80;;;15.00;99.90;;;;;;5070875;28;20044;-25
2022/10/05 01:09:28;;;;;;;8.48;5.13;;;15.00;99.90;;;;;;5054319;28;20088;-24
2022/10/05 01:12:21;;;;;;;7.05;4.78;;;14.90;99.90;;;;;;5054191;28;20107;-25
2022/10/05 01:15:06;;;;;;;9.73;5.25;;;15.00;99.90;;;;;;5050331;28;20102;-25
2022/10/05 01:17:47;;;;;;;6.13;4.90;;;15.00;99.90;;;;;;5057461;28;20045;-25
2022/10/05 01:20:25;;;;;;;9.88;5.00;;;15.00;99.90;;;;;;5074148;28;20084;-24
2022/10/05 01:23:14;;;;;;;9.45;4.65;;;14.90;99.90;;;;;;5056225;28;20052;-25
2022/10/05 01:26:01;;;;;;;6.53;4.15;;;14.90;99.90;;;;;;5073136;28;20043;-25
2022/10/05 01:28:38;;;;;;;5.95;4.40;;;14.90;99.90;;;;;;5067883;28;20572;-25
2022/10/05 01:31:36;;;;;;;7.20;4.30;;;15.00;99.90;;;;;;5068567;28;20059;-24
2022/10/05 01:34:30;;;;;;;7.82;4.32;;;15.00;99.90;;;;;;5070031;28;20048;-25
2022/10/05 01:37:14;;;;;;;6.72;4.80;;;14.90;99.90;;;;;;5072022;28;20048;-25
2022/10/05 01:39:57;;;;;;;7.40;4.05;;;15.00;99.90;;;;;;5053533;28;20095;-25
2022/10/05 01:42:31;;;;;;;7.47;4.70;;;15.00;99.90;;;;;;5058465;28;20052;-25
2022/10/05 01:45:07;;;;;;;7.53;4.55;;;15.00;99.90;;;;;;5069584;28;20047;-25
2022/10/05 01:47:46;;;;;;;6.70;4.05;;;15.00;99.90;;;;;;5069021;28;20091;-25
2022/10/05 01:50:27;;;;;;;8.77;5.00;;;15.00;99.90;;;;;;5053662;28;20092;-25
2022/10/05 01:53:09;;;;;;;7.57;5.00;;;15.00;99.90;;;;;;5038858;28;20387;-25
2022/10/05 01:56:01;;;;;;;11.10;5.88;;;15.00;99.90;;;;;;5053586;28;20069;-25
2022/10/05 01:58:43;;;;;;;5.80;5.07;;;15.00;99.90;;;;;;5063721;28;20392;-25
2022/10/05 02:01:24;;;;;;;10.18;5.65;;;14.90;99.90;;;;;;5053863;28;20045;-25
2022/10/05 02:04:00;;;;;;;8.52;5.45;;;14.90;99.90;;;;;;5053157;28;20084;-25
2022/10/05 02:06:31;;;;;;;8.88;5.65;;;14.90;99.90;;;;;;5066014;28;20048;-25
2022/10/05 02:09:12;;;;;;;8.55;5.55;;;14.90;99.90;;;;;;5068181;28;20047;-25
2022/10/05 02:11:39;;;;;;;11.18;6.35;;;14.80;99.90;;;;;;5073407;28;20113;-24
2022/10/05 02:14:14;;;;;;;7.68;6.03;;;14.90;99.90;;;;;;5073455;28;20056;-24
2022/10/05 02:16:44;;;;;;;8.85;6.10;;;14.90;99.90;;;;;;5072319;28;20043;-25
2022/10/05 02:19:24;;;;;;;10.80;7.05;;;14.80;99.90;;;;;;5073485;28;20048;-25
2022/10/05 02:22:00;;;;;;;7.40;5.80;;;14.80;99.90;;;;;;5073420;28;20048;-25
2022/10/05 02:24:34;;;;;;;8.85;6.35;;;14.70;99.90;;;;;;5073341;28;20482;-25
2022/10/05 02:27:04;;;;;;;11.60;6.22;;;14.70;99.90;;;;;;5068516;28;20075;-25
2022/10/05 02:29:32;;;;;;;9.30;6.53;;;14.70;99.90;;;;;;5053823;28;20045;-25
2022/10/05 02:32:05;;;;;;;8.70;6.30;;;14.70;99.90;;;;;;5053839;28;20049;-25
2022/10/05 02:34:41;;;;;;;;;;;14.80;99.90;;;;;;5070054;28;20049;-25
2022/10/05 02:37:26;;;;;;;12.30;6.20;;;14.80;99.90;;;;;;5069154;28;20297;-25
2022/10/05 02:40:09;;;;;;;11.95;7.20;;;14.80;99.90;;;;;;5073609;28;20065;-24
2022/10/05 02:42:47;;;;;;;13.50;7.10;;;14.80;99.90;;;;;;5073501;28;20056;-24
2022/10/05 02:45:28;;;;;;;10.30;6.35;;;14.80;99.90;;;;;;5073403;28;20044;-24
2022/10/05 02:47:54;;;;;;;7.70;5.85;;;14.80;99.90;;;;;;5062213;28;20047;-25
2022/10/05 02:50:30;;;;;;;8.52;5.65;;;14.90;99.90;;;;;;5053088;28;20395;-25
2022/10/05 02:53:22;;;;;;;17.60;5.95;;;14.90;99.90;;;;;;5053115;28;20557;-25
2022/10/05 02:56:08;;;;;;;10.18;6.50;;;14.90;99.90;;;;;;5054166;28;20068;-24
2022/10/05 02:58:59;;;;;;;9.30;6.57;;;14.90;99.90;;;;;;5059599;28;20550;-25
2022/10/05 03:01:33;;;;;;;14.27;6.70;;;14.90;99.90;;;;;;5073894;28;20463;-25
2022/10/05 03:04:33;;;;;;;8.25;5.53;;;14.90;99.90;;;;;;5073047;28;20052;-25
2022/10/05 03:07:20;;;;;;;10.40;6.55;;;14.90;99.90;;;;;;5068123;28;20053;-25
2022/10/05 03:10:01;;;;;;;10.55;5.32;;;14.90;99.90;;;;;;5068789;28;20040;-25
2022/10/05 03:12:37;;;;;;;8.68;5.40;;;14.90;99.90;;;;;;5067952;28;20049;-25
2022/10/05 03:15:15;;;;;;;6.47;4.35;;;14.90;99.90;;;;;;5066219;28;20406;-25
2022/10/05 03:17:54;;;;;;;9.90;5.93;;;15.00;99.90;;;;;;5075927;28;20056;-25
2022/10/05 03:20:33;;;;;;;9.45;5.32;;;15.00;99.90;;;;;;5061563;28;20048;-25
2022/10/05 03:23:07;;;;;;;8.40;5.13;;;15.00;99.90;;;;;;5056372;28;20150;-25
2022/10/05 03:25:50;;;;;;;11.43;5.40;;;15.00;99.90;;;;;;5056466;28;20116;-25
2022/10/05 03:29:08;;;;;;;9.65;5.25;;;15.00;99.90;;;;;;5057625;28;20056;-25
2022/10/05 03:32:15;;;;;;;9.23;4.95;;;15.00;99.90;;;;;;5043395;28;20053;-25
2022/10/05 03:34:44;;;;;;;9.35;5.45;;;15.00;99.90;;;;;;5036474;28;20566;-24
2022/10/05 03:37:23;;;;;;;9.02;4.82;;;14.90;99.90;;;;;;5061211;28;20048;-25
2022/10/05 03:40:21;;;;;;;9.43;5.00;;;14.90;99.90;;;;;;5070889;28;20115;-25
2022/10/05 03:43:25;;;;;;;7.97;5.18;;;14.90;99.90;;;;;;5075894;28;20154;-25
2022/10/05 03:46:07;;;;;;;7.03;4.97;;;14.90;99.90;;;;;;5063451;28;20053;-25
2022/10/05 03:48:50;;;;;;;6.65;4.82;;;14.90;99.90;;;;;;5076434;28;20395;-25
2022/10/05 03:51:34;;;;;;;8.90;4.20;;;14.90;99.90;;;;;;5071716;28;20051;-25
2022/10/05 03:54:08;;;;;;;7.13;4.50;;;14.90;99.90;;;;;;5075648;28;20513;-25
2022/10/05 03:56:57;;;;;;;5.75;3.78;;;14.90;99.90;;;;;;5075517;28;20041;-25
2022/10/05 03:59:30;;;;;;;6.57;4.25;;;14.90;99.90;;;;;;5075681;28;20048;-25
2022/10/05 04:01:57;;;;;;;;;;;14.90;99.90;;;;;;5072005;28;20076;-25
2022/10/05 04:04:35;;;;;;;9.55;3.88;;;14.90;99.90;;;;;;5075457;28;19928;-24
2022/10/05 04:07:01;;;;;;;8.20;3.58;;;14.90;99.90;;;;;;5071380;28;20049;-25
2022/10/05 04:09:44;;;;;;;5.68;3.10;;;14.90;99.90;;;;;;5076078;28;20056;-25
2022/10/05 04:12:16;;;;;;;;;;;14.90;99.90;;;;;;5072702;28;20048;-25
2022/10/05 04:14:49;;;;;;;6.35;3.70;;;14.90;99.90;;;;;;5075398;28;19920;-24
2022/10/05 04:17:33;;;;;;;5.83;3.67;;;14.90;99.90;;;;;;5071634;28;20076;-25
2022/10/05 04:20:06;;;;;;;6.13;4.35;;;14.80;99.90;;;;;;5075571;28;20044;-25
2022/10/05 04:22:37;;;;;;;;;;;14.80;99.90;;;;;;5071579;28;20048;-25
2022/10/05 04:25:21;;;;;;;7.38;3.90;;;14.80;99.90;;;;;;5073398;28;19927;-24
2022/10/05 04:28:02;;;;;;;10.43;4.60;;;14.80;99.90;;;;;;5073522;28;20571;-25
2022/10/05 04:30:31;;;;;;;5.78;3.55;;;14.80;99.90;;;;;;5075091;28;20129;-25
2022/10/05 04:32:59;;;;;;;6.43;3.60;;;14.80;99.90;;;;;;5059350;28;20059;-25
2022/10/05 04:35:30;;;;;;;5.05;3.40;;;14.80;99.90;;;;;;5054918;28;20049;-25
2022/10/05 04:38:14;;;;;;;6.95;3.17;;;14.80;99.90;;;;;;5065214;28;20397;-25
2022/10/05 04:40:52;;;;;;;5.95;3.80;;;14.80;99.90;;;;;;5074964;28;20064;-24
2022/10/05 04:43:31;;;;;;;5.20;3.65;;;14.80;99.90;;;;;;5056461;28;20519;-25
2022/10/05 04:46:39;;;;;;;4.13;3.15;;;14.80;99.90;;;;;;5055512;28;20064;-25
2022/10/05 04:49:39;;;;;;;4.28;3.20;;;14.80;99.90;;;;;;5054647;28;20048;-25
2022/10/05 04:52:13;;;;;;;5.35;3.72;;;14.70;99.90;;;;;;5055286;28;20047;-25
2022/10/05 04:55:02;;;;;;;5.03;3.50;;;14.70;99.90;;;;;;5073637;28;20044;-25
2022/10/05 04:57:49;;;;;;;7.32;3.60;;;14.70;99.90;;;;;;5073042;28;20048;-25
2022/10/05 05:00:14;;;;;;;7.95;4.50;;;14.70;99.90;;;;;;5056440;28;20047;-25
2022/10/05 05:02:59;;;;;;;7.35;4.63;;;14.80;99.90;;;;;;5056732;28;20481;-25
2022/10/05 05:06:05;;;;;;;7.32;4.38;;;14.70;99.90;;;;;;5053222;28;20051;-25
2022/10/05 05:08:54;;;;;;;5.88;3.75;;;14.70;99.90;;;;;;5072298;28;20520;-25
2022/10/05 05:11:42;;;;;;;8.40;4.80;;;14.70;99.90;;;;;;5074835;28;20052;-25
2022/10/05 05:14:14;;;;;;;10.20;5.82;;;14.80;99.90;;;;;;5069990;28;20053;-25
2022/10/05 05:16:46;;;;;;;8.27;5.10;;;14.80;99.90;;;;;;5074722;28;20049;-25
2022/10/05 05:19:50;;;;;;;8.65;5.68;;;14.80;99.90;;;;;;5072400;28;20124;-25
2022/10/05 05:22:36;;;;;;;8.68;6.10;;;14.70;99.90;;;;;;5054160;28;20053;-25
2022/10/05 05:25:23;;;;;;;11.52;6.57;;;14.70;99.90;;;;;;5061465;28;20064;-25
2022/10/05 05:28:07;;;;;;;7.45;5.47;;;14.70;99.90;;;;;;5072864;28;20540;-24
2022/10/05 05:30:42;;;;;;;9.00;5.78;;;14.70;99.90;;;;;;5073973;28;20070;-24
2022/10/05 05:33:17;;;;;;;8.90;6.40;;;14.70;99.90;;;;;;5069756;28;20048;-25
2022/10/05 05:36:15;;;;;;;13.18;6.32;;;14.70;99.90;;;;;;5073101;28;20132;-25
2022/10/05 05:39:03;;;;;;;8.98;5.45;;;14.70;99.90;;;;;;5063233;28;20060;-25
2022/10/05 05:41:44;;;;;;;8.10;5.80;;;14.70;99.90;;;;;;5054070;28;20102;-25
2022/10/05 05:44:32;;;;;;;8.85;5.97;;;14.70;99.90;;;;;;5053716;28;20049;-25
2022/10/05 05:47:08;;;;;;;7.70;5.43;;;14.70;99.90;;;;;;5054277;28;20094;-25
2022/10/05 05:49:49;;;;;;;9.05;6.00;;;14.70;99.90;;;;;;5053335;28;20059;-25
2022/10/05 05:52:19;;;;;;;7.70;4.93;;;14.70;99.90;;;;;;5053156;28;20503;-25
2022/10/05 05:54:56;;;;;;;13.60;5.80;;;14.70;99.90;;;;;;5053402;28;20087;-25
2022/10/05 05:57:41;;;;;;;9.82;6.25;;;14.70;99.90;;;;;;5053669;28;20135;-25
2022/10/05 06:00:31;;;;;;;7.53;5.40;;;14.70;99.90;;;;;;5059167;28;20044;-25
2022/10/05 06:03:41;;;;;;;9.95;5.60;;;14.70;99.90;;;;;;5072544;28;20044;-25
2022/10/05 06:06:14;;;;;;;6.93;4.60;;;14.70;99.90;;;;;;5051668;28;20051;-25
2022/10/05 06:08:50;;;;;;;8.35;5.65;;;14.70;99.90;;;;;;5051253;28;20106;-25
2022/10/05 06:11:30;;;;;;;9.90;5.35;;;14.70;99.90;;;;;;5062800;28;20059;-25
2022/10/05 06:14:03;;;;;;;10.65;5.93;;;14.70;99.90;;;;;;5060797;28;20056;-25
2022/10/05 06:16:40;;;;;;;;;;;14.70;99.90;;;;;;5053887;28;20037;-25
2022/10/05 06:19:20;;;;;;;10.07;5.55;;;14.70;99.90;;;;;;5053369;28;19921;-25
2022/10/05 06:21:54;;;;;;;9.50;6.22;;;14.70;99.90;;;;;;5054774;28;20057;-25
2022/10/05 06:24:22;;;;;;;7.80;5.05;;;14.70;99.90;;;;;;5055821;28;20072;-25
2022/10/05 06:26:53;;;;;;;10.98;5.82;;;14.70;99.90;;;;;;5054088;28;20045;-25
2022/10/05 06:29:25;;;;;;;12.73;6.05;;;14.70;99.90;;;;;;5053583;28;20140;-25
2022/10/05 06:32:16;;;;;;;9.50;5.90;;;14.70;99.90;;;;;;5057078;28;20040;-25
2022/10/05 06:35:20;;;;;;;7.53;4.32;;;14.70;99.90;;;;;;5044382;28;20521;-25
2022/10/05 06:38:12;;;;;;;8.35;5.28;;;14.70;99.90;;;;;;5062750;28;20052;-25
2022/10/05 06:40:40;;;;;;;6.60;5.13;;;14.80;99.90;;;;;;5073219;28;20064;-25
2022/10/05 06:43:24;;;;;;;8.05;5.45;;;14.70;99.90;;;;;;5065509;28;20044;-25
2022/10/05 06:45:51;;;;;;;10.10;5.50;;;14.80;99.90;;;;;;5065076;28;20068;-25
2022/10/05 06:48:53;;;;;;;8.07;5.18;;;14.80;99.90;;;;;;5072588;28;20056;-25
2022/10/05 06:51:40;;;;;;;9.15;5.30;;;14.80;99.90;;;;;;5077807;28;20134;-25
2022/10/05 06:54:42;;;;;;;7.75;4.95;;;14.80;99.90;;;;;;5063016;28;20040;-25
2022/10/05 06:57:26;;;;;;;10.70;5.28;;;14.90;99.90;;;;;;5057141;28;20041;-24
2022/10/05 07:00:01;;;;;;;8.07;5.50;;;14.90;99.90;;;;;;5056558;28;20543;-24
2022/10/05 07:02:35;;;;;;;10.45;5.47;;;15.00;99.90;;;;;;5056320;28;20091;-25
2022/10/05 07:05:18;;;;;;;9.82;4.63;;;15.00;99.90;;;;;;5058210;28;20049;-25
2022/10/05 07:07:58;;;;;;;8.32;4.60;;;15.00;99.90;;;;;;5056635;28;20095;-25
2022/10/05 07:10:32;;;;;;;9.05;4.75;;;15.10;99.90;;;;;;5056568;28;20124;-25
2022/10/05 07:13:04;;;;;;;8.30;4.55;;;15.10;99.90;;;;;;5065624;28;20044;-25
2022/10/05 07:15:58;;;;;;;8.40;5.13;;;15.10;99.90;;;;;;5074025;28;20505;-25
2022/10/05 07:18:31;;;;;;;9.35;4.28;;;15.10;99.90;;;;;;5076424;28;20102;-24
2022/10/05 07:21:12;;;;;;;5.70;4.50;;;15.10;99.90;;;;;;5072050;28;20453;-25
2022/10/05 07:24:00;;;;;;;8.75;4.97;;;15.10;99.90;;;;;;5074636;28;20041;-25
2022/10/05 07:26:32;;;;;;;6.25;4.13;;;15.10;99.90;;;;;;5074280;28;20040;-25
2022/10/05 07:29:09;;;;;;;7.63;3.63;;;15.10;99.90;;;;;;5063976;28;20041;-25
2022/10/05 07:31:47;;;;;;;7.55;4.18;;;15.10;99.90;;;;;;5056131;28;20049;-24
2022/10/05 07:34:36;;;;;;;6.95;4.63;;;15.20;99.90;;;;;;5056119;28;20041;-24
2022/10/05 07:39:57;;;;;;;;;;;15.30;99.90;;;;;;5061341;28;20113;-25
2022/10/05 07:42:46;;;;;;;6.47;3.80;;;15.30;99.90;;;;;;5076023;28;19927;-25
2022/10/05 07:45:32;;;;;;;5.95;3.55;;;15.40;99.90;;;;;;5072186;28;20048;-25
2022/10/05 07:48:05;;;;;;;3.40;2.67;;;15.40;99.90;;;;;;5055943;28;20140;-25
2022/10/05 07:50:38;;;;;;;;;;;15.50;45.70;;;;;;5059015;28;20051;-25
2022/10/05 07:53:17;;;;;;;4.17;2.73;;;15.50;99.90;;;;;;5057402;28;20015;-25
2022/10/05 07:55:50;;;;;;;6.43;3.08;;;15.50;1.00;;;;;;5075739;28;20101;-25
2022/10/05 07:58:18;;;;;;;4.80;3.17;;;15.60;1.00;;;;;;5074906;28;20095;-25
2022/10/05 08:01:04;;;;;;;3.85;2.97;;;15.60;1.00;;;;;;5075526;28;20048;-25
2022/10/05 08:03:44;;;;;;;4.22;2.58;;;15.60;1.00;;;;;;5076434;28;20045;-24
2022/10/05 08:06:34;;;;;;;6.70;3.00;;;15.70;1.00;;;;;;5075472;28;20055;-25
2022/10/05 08:09:21;;;;;;;3.75;2.40;;;15.60;99.90;;;;;;5064021;28;20095;-25
2022/10/05 08:11:49;;;;;;;2.78;1.90;;;15.60;99.90;;;;;;5075770;28;20052;-25
2022/10/05 08:14:51;;;;;;;7.25;2.58;;;15.60;99.90;;;;;;5075321;28;20048;-24
2022/10/05 08:17:54;;;;;;;6.53;2.22;;;15.60;99.90;;;;;;5075914;28;20051;-25
2022/10/05 08:20:29;;;;;;;3.03;1.50;;;15.60;99.90;;;;;;5053575;28;20056;-25
2022/10/05 08:23:18;;;;;;;2.22;1.60;;;15.70;99.90;;;;;;5071987;28;20415;-24
2022/10/05 08:25:55;;;;;;;3.08;1.52;;;15.70;99.90;;;;;;5075309;28;20076;-24
2022/10/05 08:28:47;;;;;;;3.45;1.60;;;15.80;99.90;;;;;;5075898;28;20052;-24
2022/10/05 08:31:25;;;;;;;3.30;1.40;;;15.90;99.90;;;;;;5066642;28;20048;-24
2022/10/05 08:34:02;;;;;;;4.13;1.70;;;16.00;99.90;;;;;;5075060;28;20092;-25
2022/10/05 08:36:59;;;;;;;2.80;1.77;;;16.10;93.30;;;;;;5075263;28;20116;-25
2022/10/05 08:39:33;;;;;;;2.50;1.20;;;16.20;99.90;;;;;;5074858;28;20040;-25
2022/10/05 08:42:20;;;;;;;2.13;1.10;;;16.20;1.00;;;;;;5073644;28;20055;-25
2022/10/05 08:45:04;;;;;;;3.83;0.93;;;16.20;99.90;;;;;;5075257;28;20041;-25
2022/10/05 08:48:00;;;;;;;2.10;1.10;;;16.30;1.00;;;;;;5075298;28;20182;-25
2022/10/05 08:50:53;;;;;;;1.40;0.98;;;16.60;99.90;;;;;;5069891;28;20387;-25
2022/10/05 08:53:33;;;;;;;3.88;1.00;;;16.50;1.00;;;;;;5074929;28;20051;-25
2022/10/05 08:56:20;;;;;;;4.25;1.75;;;16.50;99.90;;;;;;5074463;28;20048;-25
2022/10/05 08:58:57;;;;;;;2.70;0.90;;;16.50;1.00;;;;;;5074461;28;20050;-25
2022/10/05 09:01:35;;;;;;;2.33;0.95;;;16.50;88.40;;;;;;5074471;28;20048;-25
2022/10/05 09:04:18;;;;;;;2.15;0.60;;;16.60;1.00;;;;;;5074313;28;20052;-25
2022/10/05 09:07:18;;;;;;;3.90;1.52;;;16.60;42.90;;;;;;5073990;28;20465;-25
2022/10/05 09:09:47;;;;;;;3.28;0.90;;;16.70;19.30;;;;;;5041012;28;20498;-25
2022/10/05 09:12:38;;;;;;;3.55;1.20;;;16.90;1.00;;;;;;5074784;28;20048;-25
2022/10/05 09:15:30;;;;;;;3.80;1.25;;;17.00;1.00;;;;;;5073970;28;20041;-25
2022/10/05 09:18:26;;;;;;;5.75;1.17;;;17.30;1.00;;;;;;5074010;28;20074;-25
2022/10/05 09:21:13;;;;;;;1.60;1.00;;;17.50;99.90;;;;;;5073984;28;20525;-25
2022/10/05 09:23:43;;;;;;;2.28;1.20;;;17.80;99.90;;;;;;5052645;28;20502;-25
2022/10/05 09:26:52;;;;;;;2.58;1.73;;;18.20;1.00;;;;;;5072984;28;20123;-25
2022/10/05 09:29:39;;;;;;;4.40;1.38;;;18.70;99.90;;;;;;5073927;28;20056;-26
2022/10/05 09:32:28;;;;;;;4.13;1.23;;;18.70;95.90;;;;;;5074033;28;20506;-26
2022/10/05 09:35:18;;;;;;;6.13;2.15;;;17.80;1.00;;;;;;5073873;28;20123;-25
2022/10/05 09:38:07;;;;;;;1.83;1.38;;;17.50;99.90;;;;;;5074485;28;20044;-25
2022/10/05 09:41:20;;;;;;;2.67;1.23;;;17.40;99.90;;;;;;5074233;28;20382;-25
2022/10/05 09:44:35;;;;;;;5.07;2.08;;;17.50;99.90;;;;;;5072838;28;20502;-25
2022/10/05 09:47:09;;;;;;;3.47;2.00;;;17.70;99.90;;;;;;5054163;28;20065;-25
2022/10/05 09:49:44;;;;;;;2.80;1.75;;;17.60;99.90;;;;;;5074213;28;20087;-25
2022/10/05 09:52:56;;;;;;;5.57;2.05;;;17.60;99.90;;;;;;5074212;28;20056;-25
2022/10/05 09:55:49;;;;;;;3.28;2.10;;;17.60;1.00;;;;;;5074287;28;20097;-25
2022/10/05 09:58:58;;;;;;;2.90;1.88;;;17.40;1.00;;;;;;5073513;28;20048;-25
2022/10/05 10:02:10;;;;;;;5.57;1.95;;;17.60;99.90;;;;;;5070141;28;20138;-25
2022/10/05 10:05:04;;;;;;;11.63;2.20;;;17.70;99.90;;;;;;5047753;28;20079;-25
2022/10/05 10:07:45;;;;;;;2.92;1.60;;;17.90;99.90;;;;;;5056600;28;20503;-25
2022/10/05 10:10:16;;;;;;;2.83;2.10;;;17.80;99.90;;;;;;5056999;28;20051;-25
2022/10/05 10:12:48;;;;;;;5.30;2.50;;;17.60;99.90;;;;;;5054297;28;20049;-26
2022/10/05 10:15:38;;;;;;;3.13;1.85;;;17.40;99.90;;;;;;5053394;28;20048;-25
2022/10/05 10:18:23;;;;;;;3.45;1.80;;;17.30;99.90;;;;;;5055543;28;20124;-25
2022/10/05 10:21:09;;;;;;;3.45;1.90;;;17.30;99.90;;;;;;5053992;28;20103;-25
2022/10/05 10:23:59;;;;;;;3.83;1.80;;;17.30;1.00;;;;;;5057183;28;20426;-25
2022/10/05 10:26:45;;;;;;;5.55;2.10;;;17.30;1.00;;;;;;5064384;28;20491;-25
2022/10/05 10:29:22;;;;;;;5.00;2.00;;;17.20;1.00;;;;;;5066209;28;20052;-25
2022/10/05 10:32:06;;;;;;;3.88;1.70;;;17.10;1.00;;;;;;5077914;28;20437;-25
2022/10/05 10:35:06;;;;;;;2.95;1.35;;;17.10;1.00;;;;;;5077446;28;20483;-25
2022/10/05 10:38:07;;;;;;;2.53;1.70;;;17.00;1.00;;;;;;5071341;28;20048;-25
2022/10/05 10:40:57;;;;;;;5.53;2.00;;;16.90;1.00;;;;;;5056859;28;20096;-24
2022/10/05 10:43:50;;;;;;;3.28;2.10;;;16.80;1.00;;;;;;5057727;28;20133;-24
2022/10/05 10:46:38;;;;;;;4.32;2.20;;;16.70;99.90;;;;;;5057083;28;20036;-24
2022/10/05 10:49:21;;;;;;;4.20;2.15;;;16.60;99.90;;;;;;5057141;28;20056;-24
2022/10/05 10:52:07;;;;;;;3.55;2.03;;;16.60;99.90;;;;;;5057659;28;20036;-24
2022/10/05 10:55:06;;;;;;;3.42;1.90;;;16.70;99.90;;;;;;5057906;28;20540;-25
2022/10/05 10:58:04;;;;;;;6.60;2.47;;;16.60;99.90;;;;;;5057146;28;20052;-25
2022/10/05 11:00:48;;;;;;;5.82;2.10;;;16.60;99.90;;;;;;5056811;28;20085;-25
2022/10/05 11:03:35;;;;;;;3.67;2.20;;;16.60;1.00;;;;;;5056741;28;20529;-24
2022/10/05 11:06:36;;;;;;;4.40;2.00;;;16.60;1.00;;;;;;5056311;28;20446;-24
2022/10/05 11:09:10;;;;;;;7.47;2.35;;;16.60;1.00;;;;;;5018377;28;20057;-24
2022/10/05 11:11:49;;;;;;;5.05;2.42;;;16.50;99.90;;;;;;5052928;28;20064;-24
2022/10/05 11:14:28;;;;;;;3.95;2.30;;;16.60;1.00;;;;;;5057360;28;20055;-24
2022/10/05 11:17:15;;;;;;;6.95;2.30;;;16.70;1.00;;;;;;5055887;28;20132;-25
2022/10/05 11:20:24;;;;;;;2.97;2.47;;;16.60;1.00;;;;;;5056271;28;20401;-24
2022/10/05 11:22:58;;;;;;;5.78;2.28;;;16.70;1.00;;;;;;5056877;28;20044;-24
2022/10/05 11:25:43;;;;;;;4.22;2.42;;;16.60;1.00;;;;;;5056275;28;20174;-25
2022/10/05 11:28:24;;;;;;;6.43;2.20;;;16.60;1.00;;;;;;5056850;28;20053;-25
2022/10/05 11:31:09;;;;;;;2.90;2.30;;;16.50;16.10;;;;;;5056250;28;20079;-25
2022/10/05 11:34:02;;;;;;;2.20;1.80;;;16.50;40.10;;;;;;5055448;28;20133;-24
2022/10/05 11:36:31;;;;;;;3.80;2.30;;;16.40;1.00;;;;;;5055824;28;20512;-24
2022/10/05 11:39:35;;;;;;;4.25;2.47;;;16.40;1.00;;;;;;5056361;28;20382;-24
2022/10/05 11:42:16;;;;;;;4.10;2.00;;;16.40;1.00;;;;;;5055802;28;20073;-24
2022/10/05 11:45:20;;;;;;;3.38;1.73;;;16.40;99.90;;;;;;5055897;28;20509;-24
2022/10/05 11:48:14;;;;;;;4.97;2.10;;;16.40;1.00;;;;;;5056683;28;20053;-24
2022/10/05 11:51:01;;;;;;;2.17;1.55;;;16.40;1.00;;;;;;5056677;28;20076;-24
2022/10/05 11:53:40;;;;;;;2.70;1.60;;;16.40;1.00;;;;;;5056363;28;20049;-24
2022/10/05 11:56:15;;;;;;;5.43;1.92;;;16.40;1.00;;;;;;5038436;28;20055;-24
2022/10/05 11:59:08;;;;;;;9.00;3.17;;;16.40;1.00;;;;;;5055054;28;20087;-24
2022/10/05 12:01:50;;;;;;;5.28;1.40;;;16.40;46.80;;;;;;5056181;28;20052;-24
2022/10/05 12:04:55;;;;;;;5.38;1.75;;;16.40;78.50;;;;;;5038375;28;20048;-24
2022/10/05 12:07:51;;;;;;;2.10;1.33;;;16.50;99.90;;;;;;5056130;28;20049;-24
2022/10/05 12:10:30;;;;;;;4.35;1.42;;;16.50;1.00;;;;;;5055125;28;20487;-24
2022/10/05 12:13:24;;;;;;;4.20;1.48;;;16.50;97.30;;;;;;5054882;28;20124;-24
2022/10/05 12:16:09;;;;;;;2.28;1.45;;;16.50;39.30;;;;;;5054455;28;20049;-24
2022/10/05 12:18:38;;;;;;;3.65;1.38;;;16.50;1.00;;;;;;5055871;28;20052;-24
2022/10/05 12:21:06;;;;;;;2.78;1.13;;;16.50;99.90;;;;;;5055795;28;20053;-24
2022/10/05 12:23:53;;;;;;;3.22;1.30;;;16.50;99.90;;;;;;5054890;28;20487;-24
2022/10/05 12:26:28;;;;;;;2.58;1.35;;;16.50;99.90;;;;;;5055756;28;20094;-24
2022/10/05 12:29:43;;;;;;;2.95;1.60;;;16.50;1.00;;;;;;5038114;28;20136;-24
2022/10/05 12:32:21;;;;;;;4.72;1.40;;;16.50;99.90;;;;;;5017081;28;20106;-24
2022/10/05 12:34:56;;;;;;;2.55;1.20;;;16.50;99.90;;;;;;5055583;28;20052;-24
2022/10/05 12:37:46;;;;;;;1.48;1.00;;;16.50;99.90;;;;;;5054977;28;20048;-24
2022/10/05 12:40:21;;;;;;;5.75;1.60;;;16.50;99.90;;;;;;5055209;28;20490;-24
2022/10/05 12:43:03;;;;;;;3.30;1.25;;;16.50;99.90;;;;;;5054841;28;20049;-24
2022/10/05 12:45:59;;;;;;;2.80;1.48;;;16.50;99.90;;;;;;5055169;28;20124;-24
2022/10/05 12:48:36;;;;;;;2.25;1.38;;;16.50;99.90;;;;;;5055303;28;20053;-24
2022/10/05 12:51:17;;;;;;;3.00;1.67;;;16.50;99.90;;;;;;5054702;28;20088;-25
2022/10/05 12:54:07;;;;;;;4.60;1.80;;;16.60;1.00;;;;;;5054500;28;20048;-24
2022/10/05 12:56:54;;;;;;;2.35;1.42;;;16.60;99.90;;;;;;5034618;28;20403;-25
2022/10/05 12:59:30;;;;;;;3.25;1.40;;;16.60;99.90;;;;;;5054151;28;20399;-24
2022/10/05 13:02:01;;;;;;;2.25;1.52;;;16.60;99.90;;;;;;5054795;28;20045;-25
2022/10/05 13:04:55;;;;;;;5.00;1.75;;;16.60;99.90;;;;;;5053452;28;20049;-25
2022/10/05 13:07:34;;;;;;;3.05;1.75;;;16.60;99.90;;;;;;5048517;28;20103;-24
2022/10/05 13:10:23;;;;;;;5.43;1.60;;;16.60;99.90;;;;;;5055196;28;20121;-24
2022/10/05 13:13:10;;;;;;;4.05;1.88;;;16.60;1.00;;;;;;5036446;28;20049;-24
2022/10/05 13:16:03;;;;;;;3.28;1.08;;;16.60;1.00;;;;;;5055097;28;20060;-24
2022/10/05 13:18:53;;;;;;;3.00;2.10;;;16.60;99.90;;;;;;5036399;28;20064;-24
2022/10/05 13:21:47;;;;;;;4.72;2.53;;;16.70;1.00;;;;;;5054996;28;20429;-24
2022/10/05 13:24:13;;;;;;;6.72;1.80;;;16.70;99.90;;;;;;5054913;28;20053;-24
2022/10/05 13:26:43;;;;;;;3.83;1.73;;;16.80;51.90;;;;;;5054525;28;20429;-25
2022/10/05 13:29:36;;;;;;;2.92;2.00;;;16.80;1.00;;;;;;5054038;28;20085;-24
2022/10/05 13:32:33;;;;;;;3.67;2.17;;;16.90;1.00;;;;;;5053050;28;20529;-25
2022/10/05 13:35:06;;;;;;;3.30;2.15;;;16.80;99.90;;;;;;5054263;28;20048;-24
2022/10/05 13:37:42;;;;;;;4.90;2.53;;;16.80;1.00;;;;;;5053357;28;20048;-25
2022/10/05 13:40:38;;;;;;;2.67;1.98;;;16.90;1.00;;;;;;5054340;28;20061;-25
2022/10/05 13:43:26;;;;;;;4.00;2.20;;;17.00;99.90;;;;;;5053760;28;20509;-24
2022/10/05 13:45:59;;;;;;;3.28;1.90;;;17.10;99.90;;;;;;5052659;28;20473;-24
2022/10/05 13:48:43;;;;;;;3.72;1.90;;;17.20;99.90;;;;;;5053788;28;20471;-24
2022/10/05 13:51:20;;;;;;;3.88;1.50;;;17.20;99.90;;;;;;5053452;28;20475;-25
2022/10/05 13:54:08;;;;;;;5.28;2.25;;;17.30;99.90;;;;;;5053403;28;20521;-24
2022/10/05 13:56:39;;;;;;;3.58;1.92;;;17.40;99.90;;;;;;5052910;28;20479;-24
2022/10/05 13:59:17;;;;;;;4.88;2.30;;;17.30;99.90;;;;;;5054438;28;20102;-24
2022/10/05 14:02:08;;;;;;;3.33;2.38;;;17.50;99.90;;;;;;5054030;28;20045;-25
2022/10/05 14:04:56;;;;;;;5.35;2.60;;;17.40;96.30;;;;;;5053745;28;20056;-24
2022/10/05 14:07:30;;;;;;;7.13;2.65;;;17.50;1.00;;;;;;5053398;28;20045;-24
2022/10/05 14:09:58;;;;;;;3.92;2.33;;;17.50;1.00;;;;;;5052764;28;20051;-24
2022/10/05 14:12:25;;;;;;;3.13;1.65;;;17.40;1.00;;;;;;5053350;28;20056;-25